sensor_id;sensor_type;location;lat;lon;timestamp;pressure;altitude;pressure_sealevel;temperature;humidity
9893;BME280;4985;49.092;8.542;2023-12-29T00:01:45;99354.72;;;15.33;50.37
9893;BME280;4985;49.092;8.542;2023-12-29T00:04:10;99350.22;;;15.34;50.66
9893;BME280;4985;49.092;8.542;2023-12-29T00:06:39;99354.50;;;15.35;50.78
9893;BME280;4985;49.092;8.542;2023-12-29T00:09:05;99357.16;;;15.35;50.63
9893;BME280;4985;49.092;8.542;2023-12-29T00:11:30;99350.03;;;15.35;50.54
9893;BME280;4985;49.092;8.542;2023-12-29T00:13:55;99357.16;;;15.35;50.55
9893;BME280;4985;49.092;8.542;2023-12-29T00:16:21;99361.47;;;15.36;50.47
9893;BME280;4985;49.092;8.542;2023-12-29T00:18:46;99359.81;;;15.35;50.53
9893;BME280;4985;49.092;8.542;2023-12-29T00:21:12;99363.50;;;15.34;50.35
9893;BME280;4985;49.092;8.542;2023-12-29T00:23:37;99368.78;;;15.34;50.65
9893;BME280;4985;49.092;8.542;2023-12-29T00:26:03;99376.56;;;15.35;50.42
9893;BME280;4985;49.092;8.542;2023-12-29T00:28:28;99360.84;;;15.34;50.41
9893;BME280;4985;49.092;8.542;2023-12-29T00:30:53;99372.47;;;15.33;50.54
9893;BME280;4985;49.092;8.542;2023-12-29T00:33:19;99371.84;;;15.31;50.33
9893;BME280;4985;49.092;8.542;2023-12-29T00:35:44;99359.59;;;15.30;50.54
9893;BME280;4985;49.092;8.542;2023-12-29T00:38:09;99367.53;;;15.30;50.54
9893;BME280;4985;49.092;8.542;2023-12-29T00:40:35;99356.94;;;15.30;50.45
9893;BME280;4985;49.092;8.542;2023-12-29T00:43:01;99363.06;;;15.30;50.76
9893;BME280;4985;49.092;8.542;2023-12-29T00:45:27;99359.59;;;15.30;50.72
9893;BME280;4985;49.092;8.542;2023-12-29T00:47:58;99364.69;;;15.31;50.65
9893;BME280;4985;49.092;8.542;2023-12-29T00:50:24;99362.03;;;15.31;50.38
9893;BME280;4985;49.092;8.542;2023-12-29T00:52:50;99359.41;;;15.31;50.83
9893;BME280;4985;49.092;8.542;2023-12-29T00:55:15;99354.91;;;15.32;50.52
9893;BME280;4985;49.092;8.542;2023-12-29T00:57:40;99349.81;;;15.30;50.55
9893;BME280;4985;49.092;8.542;2023-12-29T01:00:10;99342.84;;;15.29;50.74
9893;BME280;4985;49.092;8.542;2023-12-29T01:02:36;99344.66;;;15.29;50.70
9893;BME280;4985;49.092;8.542;2023-12-29T01:05:01;99342.84;;;15.29;50.88
9893;BME280;4985;49.092;8.542;2023-12-29T01:07:27;99330.78;;;15.27;50.78
9893;BME280;4985;49.092;8.542;2023-12-29T01:09:52;99334.25;;;15.27;50.59
9893;BME280;4985;49.092;8.542;2023-12-29T01:12:17;99327.09;;;15.28;50.89
9893;BME280;4985;49.092;8.542;2023-12-29T01:14:43;99328.75;;;15.29;50.74
9893;BME280;4985;49.092;8.542;2023-12-29T01:17:08;99316.50;;;15.28;50.65
9893;BME280;4985;49.092;8.542;2023-12-29T01:19:33;99325.13;;;15.30;50.63
9893;BME280;4985;49.092;8.542;2023-12-29T01:21:59;99320.78;;;15.29;50.93
9893;BME280;4985;49.092;8.542;2023-12-29T01:24:24;99325.94;;;15.30;50.75
9893;BME280;4985;49.092;8.542;2023-12-29T01:26:49;99326.75;;;15.31;50.96
9893;BME280;4985;49.092;8.542;2023-12-29T01:29:15;99338.38;;;15.30;50.61
9893;BME280;4985;49.092;8.542;2023-12-29T01:31:40;99344.31;;;15.32;50.63
9893;BME280;4985;49.092;8.542;2023-12-29T01:34:05;99349.59;;;15.32;51.01
9893;BME280;4985;49.092;8.542;2023-12-29T01:36:30;99349.59;;;15.32;50.82
9893;BME280;4985;49.092;8.542;2023-12-29T01:38:56;99342.47;;;15.32;50.88
9893;BME280;4985;49.092;8.542;2023-12-29T01:41:22;99340.63;;;15.33;50.96
9893;BME280;4985;49.092;8.542;2023-12-29T01:44:18;99335.94;;;15.35;50.62
9893;BME280;4985;49.092;8.542;2023-12-29T01:46:45;99341.44;;;15.33;50.51
9893;BME280;4985;49.092;8.542;2023-12-29T01:49:14;99331.66;;;15.34;50.88
9893;BME280;4985;49.092;8.542;2023-12-29T01:51:42;99334.31;;;15.34;50.53
9893;BME280;4985;49.092;8.542;2023-12-29T01:54:08;99336.97;;;15.34;50.97
9893;BME280;4985;49.092;8.542;2023-12-29T01:56:33;99337.97;;;15.33;50.58
9893;BME280;4985;49.092;8.542;2023-12-29T01:58:59;99333.28;;;15.35;50.57
9893;BME280;4985;49.092;8.542;2023-12-29T02:01:24;99343.91;;;15.35;50.90
9893;BME280;4985;49.092;8.542;2023-12-29T02:03:49;99328.81;;;15.35;50.83
9893;BME280;4985;49.092;8.542;2023-12-29T02:06:16;99323.50;;;15.35;50.48
9893;BME280;4985;49.092;8.542;2023-12-29T02:08:42;99317.38;;;15.35;50.52
9893;BME280;4985;49.092;8.542;2023-12-29T02:11:08;99322.69;;;15.35;50.79
9893;BME280;4985;49.092;8.542;2023-12-29T02:13:33;99325.16;;;15.36;50.75
9893;BME280;4985;49.092;8.542;2023-12-29T02:16:07;99314.72;;;15.35;50.67
9893;BME280;4985;49.092;8.542;2023-12-29T02:18:36;99310.25;;;15.35;50.87
9893;BME280;4985;49.092;8.542;2023-12-29T02:21:03;99314.72;;;15.35;50.80
9893;BME280;4985;49.092;8.542;2023-12-29T02:23:28;99299.84;;;15.34;50.45
9893;BME280;4985;49.092;8.542;2023-12-29T02:25:58;99299.84;;;15.34;50.88
9893;BME280;4985;49.092;8.542;2023-12-29T02:28:26;99303.50;;;15.33;50.76
9893;BME280;4985;49.092;8.542;2023-12-29T02:31:02;99292.06;;;15.32;50.96
9893;BME280;4985;49.092;8.542;2023-12-29T02:33:32;99292.06;;;15.32;50.50
9893;BME280;4985;49.092;8.542;2023-12-29T02:36:01;99294.72;;;15.32;50.74
9893;BME280;4985;49.092;8.542;2023-12-29T02:38:28;99292.88;;;15.33;50.63
9893;BME280;4985;49.092;8.542;2023-12-29T02:40:58;99292.88;;;15.33;50.72
9893;BME280;4985;49.092;8.542;2023-12-29T02:43:23;99300.84;;;15.33;50.65
9893;BME280;4985;49.092;8.542;2023-12-29T02:45:49;99284.13;;;15.32;50.97
9893;BME280;4985;49.092;8.542;2023-12-29T02:48:14;99289.41;;;15.32;50.83
9893;BME280;4985;49.092;8.542;2023-12-29T02:50:39;99287.59;;;15.33;50.72
9893;BME280;4985;49.092;8.542;2023-12-29T02:53:05;99276.97;;;15.33;50.87
9893;BME280;4985;49.092;8.542;2023-12-29T02:55:30;99270.84;;;15.32;51.11
9893;BME280;4985;49.092;8.542;2023-12-29T02:57:56;99263.72;;;15.33;50.92
9893;BME280;4985;49.092;8.542;2023-12-29T03:00:21;99259.44;;;15.32;50.96
9893;BME280;4985;49.092;8.542;2023-12-29T03:02:46;99261.47;;;15.30;50.90
9893;BME280;4985;49.092;8.542;2023-12-29T03:05:12;99259.44;;;15.32;50.81
9893;BME280;4985;49.092;8.542;2023-12-29T03:07:37;99259.63;;;15.30;51.06
9893;BME280;4985;49.092;8.542;2023-12-29T03:10:05;99262.09;;;15.32;51.09
9893;BME280;4985;49.092;8.542;2023-12-29T03:12:30;99254.94;;;15.32;51.16
9893;BME280;4985;49.092;8.542;2023-12-29T03:14:56;99272.69;;;15.32;50.90
9893;BME280;4985;49.092;8.542;2023-12-29T03:17:21;99259.44;;;15.32;51.06
9893;BME280;4985;49.092;8.542;2023-12-29T03:19:47;99270.66;;;15.34;51.16
9893;BME280;4985;49.092;8.542;2023-12-29T03:22:12;99273.31;;;15.34;51.31
9893;BME280;4985;49.092;8.542;2023-12-29T03:24:40;99277.41;;;15.36;51.11
9893;BME280;4985;49.092;8.542;2023-12-29T03:27:06;99279.22;;;15.36;50.91
9893;BME280;4985;49.092;8.542;2023-12-29T03:29:31;99286.19;;;15.37;51.14
9893;BME280;4985;49.092;8.542;2023-12-29T03:31:56;99277.41;;;15.36;51.09
9893;BME280;4985;49.092;8.542;2023-12-29T03:34:22;99270.47;;;15.35;51.21
9893;BME280;4985;49.092;8.542;2023-12-29T03:36:47;99269.63;;;15.35;51.24
9893;BME280;4985;49.092;8.542;2023-12-29T03:39:12;99272.09;;;15.36;51.14
9893;BME280;4985;49.092;8.542;2023-12-29T03:41:38;99276.59;;;15.36;50.90
9893;BME280;4985;49.092;8.542;2023-12-29T03:44:03;99265.97;;;15.36;51.25
9893;BME280;4985;49.092;8.542;2023-12-29T03:46:28;99278.41;;;15.35;50.97
9893;BME280;4985;49.092;8.542;2023-12-29T03:48:54;99263.31;;;15.36;51.14
9893;BME280;4985;49.092;8.542;2023-12-29T03:51:20;99265.78;;;15.37;51.53
9893;BME280;4985;49.092;8.542;2023-12-29T03:53:45;99257.00;;;15.37;51.42
9893;BME280;4985;49.092;8.542;2023-12-29T03:56:15;99257.00;;;15.37;51.54
9893;BME280;4985;49.092;8.542;2023-12-29T03:58:41;99258.84;;;15.36;51.46
9893;BME280;4985;49.092;8.542;2023-12-29T04:01:11;99265.97;;;15.36;51.52
9893;BME280;4985;49.092;8.542;2023-12-29T04:03:37;99260.66;;;15.36;51.63
9893;BME280;4985;49.092;8.542;2023-12-29T04:06:03;99259.66;;;15.37;51.82
9893;BME280;4985;49.092;8.542;2023-12-29T04:08:28;99253.31;;;15.38;51.91
9893;BME280;4985;49.092;8.542;2023-12-29T04:10:54;99261.28;;;15.38;51.78
9893;BME280;4985;49.092;8.542;2023-12-29T04:13:19;99253.31;;;15.38;51.70
9893;BME280;4985;49.092;8.542;2023-12-29T04:15:44;99260.47;;;15.37;51.78
9893;BME280;4985;49.092;8.542;2023-12-29T04:18:10;99258.44;;;15.39;52.04
9893;BME280;4985;49.092;8.542;2023-12-29T04:20:35;99264.75;;;15.38;52.18
9893;BME280;4985;49.092;8.542;2023-12-29T04:23:00;99263.94;;;15.38;52.08
9893;BME280;4985;49.092;8.542;2023-12-29T04:25:26;99270.06;;;15.38;52.25
9893;BME280;4985;49.092;8.542;2023-12-29T04:27:51;99263.94;;;15.38;52.19
9893;BME280;4985;49.092;8.542;2023-12-29T04:30:17;99263.75;;;15.39;52.05
9893;BME280;4985;49.092;8.542;2023-12-29T04:32:42;99264.75;;;15.38;51.98
9893;BME280;4985;49.092;8.542;2023-12-29T04:35:07;99272.50;;;15.40;52.22
9893;BME280;4985;49.092;8.542;2023-12-29T04:37:35;99273.16;;;15.42;51.96
9893;BME280;4985;49.092;8.542;2023-12-29T04:40:00;99278.66;;;15.40;52.05
9893;BME280;4985;49.092;8.542;2023-12-29T04:42:25;99280.31;;;15.41;51.96
9893;BME280;4985;49.092;8.542;2023-12-29T04:44:51;99285.41;;;15.43;51.90
9893;BME280;4985;49.092;8.542;2023-12-29T04:47:16;99281.94;;;15.42;52.08
9893;BME280;4985;49.092;8.542;2023-12-29T04:49:41;99273.16;;;15.42;52.07
9893;BME280;4985;49.092;8.542;2023-12-29T04:52:07;99275.81;;;15.42;51.88
9893;BME280;4985;49.092;8.542;2023-12-29T04:54:32;99265.22;;;15.42;51.73
9893;BME280;4985;49.092;8.542;2023-12-29T04:56:57;99268.69;;;15.42;51.86
9893;BME280;4985;49.092;8.542;2023-12-29T04:59:23;99266.84;;;15.43;51.69
9893;BME280;4985;49.092;8.542;2023-12-29T05:01:48;99271.34;;;15.42;51.82
9893;BME280;4985;49.092;8.542;2023-12-29T05:04:13;99273.78;;;15.44;51.70
9893;BME280;4985;49.092;8.542;2023-12-29T05:06:40;99281.75;;;15.44;51.90
9893;BME280;4985;49.092;8.542;2023-12-29T05:09:06;99280.72;;;15.45;51.84
9893;BME280;4985;49.092;8.542;2023-12-29T05:11:31;99279.91;;;15.44;51.70
9893;BME280;4985;49.092;8.542;2023-12-29T05:13:57;99283.19;;;15.47;51.70
9893;BME280;4985;49.092;8.542;2023-12-29T05:16:22;99292.97;;;15.46;51.59
9893;BME280;4985;49.092;8.542;2023-12-29T05:18:48;99279.72;;;15.46;51.97
9893;BME280;4985;49.092;8.542;2023-12-29T05:21:17;99292.97;;;15.46;51.70
9893;BME280;4985;49.092;8.542;2023-12-29T05:23:46;99288.50;;;15.47;51.99
9893;BME280;4985;49.092;8.542;2023-12-29T05:26:12;99280.72;;;15.45;52.42
9893;BME280;4985;49.092;8.542;2023-12-29T05:28:38;99285.41;;;15.43;52.19
9893;BME280;4985;49.092;8.542;2023-12-29T05:31:03;99282.75;;;15.43;52.16
9893;BME280;4985;49.092;8.542;2023-12-29T05:33:30;99279.09;;;15.44;52.38
9893;BME280;4985;49.092;8.542;2023-12-29T05:35:55;99276.44;;;15.44;52.30
9893;BME280;4985;49.092;8.542;2023-12-29T05:38:21;99279.91;;;15.44;52.34
9893;BME280;4985;49.092;8.542;2023-12-29T05:40:46;99269.28;;;15.44;52.57
9893;BME280;4985;49.092;8.542;2023-12-29T05:43:11;99281.75;;;15.44;52.76
9893;BME280;4985;49.092;8.542;2023-12-29T05:45:37;99278.47;;;15.42;52.77
9893;BME280;4985;49.092;8.542;2023-12-29T05:48:02;99279.09;;;15.44;52.71
9893;BME280;4985;49.092;8.542;2023-12-29T05:50:28;99284.41;;;15.44;52.75
9893;BME280;4985;49.092;8.542;2023-12-29T05:52:53;99279.72;;;15.46;52.57
9893;BME280;4985;49.092;8.542;2023-12-29T05:55:19;99272.78;;;15.45;52.35
9893;BME280;4985;49.092;8.542;2023-12-29T05:57:44;99277.06;;;15.46;52.82
9893;BME280;4985;49.092;8.542;2023-12-29T06:00:10;99282.38;;;15.46;52.51
9893;BME280;4985;49.092;8.542;2023-12-29T06:02:42;99272.78;;;15.45;52.46
9893;BME280;4985;49.092;8.542;2023-12-29T06:05:10;99274.59;;;15.44;52.82
9893;BME280;4985;49.092;8.542;2023-12-29T06:07:35;99270.13;;;15.45;52.73
9893;BME280;4985;49.092;8.542;2023-12-29T06:10:01;99264.81;;;15.45;52.65
9893;BME280;4985;49.092;8.542;2023-12-29T06:12:26;99266.84;;;15.43;52.60
9893;BME280;4985;49.092;8.542;2023-12-29T06:14:52;99272.16;;;15.43;52.23
9893;BME280;4985;49.092;8.542;2023-12-29T06:17:17;99272.16;;;15.43;52.56
9893;BME280;4985;49.092;8.542;2023-12-29T06:19:43;99270.50;;;15.42;52.49
9893;BME280;4985;49.092;8.542;2023-12-29T06:22:08;99281.75;;;15.44;52.17
9893;BME280;4985;49.092;8.542;2023-12-29T06:24:37;99262.56;;;15.42;51.99
9893;BME280;4985;49.092;8.542;2023-12-29T06:27:03;99270.50;;;15.42;51.97
9893;BME280;4985;49.092;8.542;2023-12-29T06:29:28;99261.53;;;15.43;52.06
9893;BME280;4985;49.092;8.542;2023-12-29T06:31:54;99266.03;;;15.42;51.96
9893;BME280;4985;49.092;8.542;2023-12-29T06:34:19;99260.72;;;15.42;51.74
9893;BME280;4985;49.092;8.542;2023-12-29T06:36:44;99259.91;;;15.42;51.65
9893;BME280;4985;49.092;8.542;2023-12-29T06:39:10;99271.34;;;15.42;52.04
9893;BME280;4985;49.092;8.542;2023-12-29T06:41:35;99267.03;;;15.41;51.80
9893;BME280;4985;49.092;8.542;2023-12-29T06:44:01;99262.56;;;15.42;51.97
9893;BME280;4985;49.092;8.542;2023-12-29T06:46:26;99264.19;;;15.43;51.95
9893;BME280;4985;49.092;8.542;2023-12-29T06:48:51;99261.34;;;15.44;52.00
9893;BME280;4985;49.092;8.542;2023-12-29T06:51:17;99259.50;;;15.45;51.74
9893;BME280;4985;49.092;8.542;2023-12-29T06:53:43;99259.50;;;15.45;52.00
9893;BME280;4985;49.092;8.542;2023-12-29T06:56:13;99254.19;;;15.45;51.53
9893;BME280;4985;49.092;8.542;2023-12-29T06:58:38;99250.94;;;15.43;51.73
9893;BME280;4985;49.092;8.542;2023-12-29T07:01:04;99257.88;;;15.44;51.63
9893;BME280;4985;49.092;8.542;2023-12-29T07:03:29;99256.84;;;15.45;51.83
9893;BME280;4985;49.092;8.542;2023-12-29T07:05:54;99262.16;;;15.45;51.81
9893;BME280;4985;49.092;8.542;2023-12-29T07:08:20;99259.50;;;15.45;51.82
9893;BME280;4985;49.092;8.542;2023-12-29T07:10:45;99254.19;;;15.45;51.65
9893;BME280;4985;49.092;8.542;2023-12-29T07:13:15;99257.88;;;15.44;51.58
9893;BME280;4985;49.092;8.542;2023-12-29T07:15:40;99260.53;;;15.44;51.38
9893;BME280;4985;49.092;8.542;2023-12-29T07:18:06;99249.91;;;15.44;51.39
9893;BME280;4985;49.092;8.542;2023-12-29T07:20:31;99257.88;;;15.44;51.69
9893;BME280;4985;49.092;8.542;2023-12-29T07:22:56;99253.59;;;15.43;51.68
9893;BME280;4985;49.092;8.542;2023-12-29T07:25:22;99252.56;;;15.44;51.45
9893;BME280;4985;49.092;8.542;2023-12-29T07:27:47;99252.56;;;15.44;51.50
9893;BME280;4985;49.092;8.542;2023-12-29T07:30:14;99249.91;;;15.44;51.73
9893;BME280;4985;49.092;8.542;2023-12-29T07:32:39;99246.25;;;15.45;51.39
9893;BME280;4985;49.092;8.542;2023-12-29T07:35:05;99259.50;;;15.45;51.50
9893;BME280;4985;49.092;8.542;2023-12-29T07:37:30;99250.94;;;15.43;51.27
9893;BME280;4985;49.092;8.542;2023-12-29T07:39:55;99256.25;;;15.43;51.58
9893;BME280;4985;49.092;8.542;2023-12-29T07:42:21;99240.31;;;15.43;51.42
9893;BME280;4985;49.092;8.542;2023-12-29T07:44:46;99250.13;;;15.42;51.45
9893;BME280;4985;49.092;8.542;2023-12-29T07:47:12;99260.53;;;15.44;51.72
9893;BME280;4985;49.092;8.542;2023-12-29T07:49:37;99257.88;;;15.44;51.66
9893;BME280;4985;49.092;8.542;2023-12-29T07:52:03;99252.56;;;15.44;51.86
9893;BME280;4985;49.092;8.542;2023-12-29T07:54:28;99252.75;;;15.42;51.54
9893;BME280;4985;49.092;8.542;2023-12-29T07:56:53;99264.00;;;15.44;51.58
9893;BME280;4985;49.092;8.542;2023-12-29T07:59:19;99260.53;;;15.44;51.65
9893;BME280;4985;49.092;8.542;2023-12-29T08:01:44;99268.47;;;15.44;51.87
9893;BME280;4985;49.092;8.542;2023-12-29T08:04:09;99269.28;;;15.44;51.67
9893;BME280;4985;49.092;8.542;2023-12-29T08:06:37;99272.78;;;15.45;51.79
9893;BME280;4985;49.092;8.542;2023-12-29T08:09:03;99271.75;;;15.46;51.49
9893;BME280;4985;49.092;8.542;2023-12-29T08:11:28;99271.75;;;15.46;51.50
9893;BME280;4985;49.092;8.542;2023-12-29T08:13:54;99274.41;;;15.46;52.00
9893;BME280;4985;49.092;8.542;2023-12-29T08:16:20;99272.56;;;15.47;51.55
9893;BME280;4985;49.092;8.542;2023-12-29T08:18:46;99274.22;;;15.48;51.78
9893;BME280;4985;49.092;8.542;2023-12-29T08:21:19;99274.22;;;15.48;51.95
9893;BME280;4985;49.092;8.542;2023-12-29T08:23:46;99274.22;;;15.48;51.96
9893;BME280;4985;49.092;8.542;2023-12-29T08:26:11;99280.34;;;15.48;51.55
9893;BME280;4985;49.092;8.542;2023-12-29T08:28:37;99275.03;;;15.48;51.79
9893;BME280;4985;49.092;8.542;2023-12-29T08:31:02;99284.00;;;15.47;51.50
9893;BME280;4985;49.092;8.542;2023-12-29T08:33:27;99284.00;;;15.47;51.46
9893;BME280;4985;49.092;8.542;2023-12-29T08:35:53;99290.13;;;15.48;51.77
9893;BME280;4985;49.092;8.542;2023-12-29T08:38:18;99291.97;;;15.47;51.61
9893;BME280;4985;49.092;8.542;2023-12-29T08:40:43;99295.44;;;15.48;51.58
9893;BME280;4985;49.092;8.542;2023-12-29T08:43:09;99305.22;;;15.47;51.70
9893;BME280;4985;49.092;8.542;2023-12-29T08:45:34;99303.38;;;15.48;51.71
9893;BME280;4985;49.092;8.542;2023-12-29T08:48:00;99300.94;;;15.46;51.62
9893;BME280;4985;49.092;8.542;2023-12-29T08:50:26;99299.09;;;15.47;51.33
9893;BME280;4985;49.092;8.542;2023-12-29T08:52:51;99307.88;;;15.47;51.53
9893;BME280;4985;49.092;8.542;2023-12-29T08:55:16;99307.88;;;15.47;51.42
9893;BME280;4985;49.092;8.542;2023-12-29T08:57:42;99307.06;;;15.47;51.30
9893;BME280;4985;49.092;8.542;2023-12-29T09:00:07;99302.56;;;15.47;51.45
9893;BME280;4985;49.092;8.542;2023-12-29T09:02:34;99299.09;;;15.47;51.47
9893;BME280;4985;49.092;8.542;2023-12-29T09:05:00;99299.91;;;15.47;51.74
9893;BME280;4985;49.092;8.542;2023-12-29T09:07:25;99305.22;;;15.47;51.72
9893;BME280;4985;49.092;8.542;2023-12-29T09:09:53;99304.41;;;15.47;51.31
9893;BME280;4985;49.092;8.542;2023-12-29T09:12:18;99306.25;;;15.46;51.37
9893;BME280;4985;49.092;8.542;2023-12-29T09:14:44;99297.25;;;15.47;51.66
9893;BME280;4985;49.092;8.542;2023-12-29T09:17:09;99306.03;;;15.48;51.58
9893;BME280;4985;49.092;8.542;2023-12-29T09:19:34;99305.22;;;15.47;51.74
9893;BME280;4985;49.092;8.542;2023-12-29T09:22:00;99305.22;;;15.47;51.81
9893;BME280;4985;49.092;8.542;2023-12-29T09:24:26;99314.19;;;15.46;51.54
9893;BME280;4985;49.092;8.542;2023-12-29T09:26:51;99319.50;;;15.46;51.83
9893;BME280;4985;49.092;8.542;2023-12-29T09:29:17;99309.72;;;15.47;51.61
9893;BME280;4985;49.092;8.542;2023-12-29T09:31:42;99315.00;;;15.47;51.85
9893;BME280;4985;49.092;8.542;2023-12-29T09:34:08;99310.53;;;15.47;51.72
9893;BME280;4985;49.092;8.542;2023-12-29T09:36:33;99317.47;;;15.48;51.49
9893;BME280;4985;49.092;8.542;2023-12-29T09:38:59;99310.53;;;15.47;51.58
9893;BME280;4985;49.092;8.542;2023-12-29T09:41:25;99317.47;;;15.48;51.85
9893;BME280;4985;49.092;8.542;2023-12-29T09:43:53;99309.50;;;15.48;51.64
9893;BME280;4985;49.092;8.542;2023-12-29T09:46:21;99310.13;;;15.50;51.53
9893;BME280;4985;49.092;8.542;2023-12-29T09:48:46;99312.63;;;15.52;51.30
9893;BME280;4985;49.092;8.542;2023-12-29T09:51:14;99311.78;;;15.51;51.57
9893;BME280;4985;49.092;8.542;2023-12-29T09:53:40;99314.41;;;15.51;51.34
9893;BME280;4985;49.092;8.542;2023-12-29T09:56:08;99314.41;;;15.51;51.60
9893;BME280;4985;49.092;8.542;2023-12-29T09:58:34;99310.13;;;15.50;51.34
9893;BME280;4985;49.092;8.542;2023-12-29T10:01:01;99319.72;;;15.51;51.55
9893;BME280;4985;49.092;8.542;2023-12-29T10:03:28;99315.44;;;15.50;51.40
9893;BME280;4985;49.092;8.542;2023-12-29T10:05:56;99313.59;;;15.51;51.45
9893;BME280;4985;49.092;8.542;2023-12-29T10:08:24;99307.69;;;15.49;51.32
9893;BME280;4985;49.092;8.542;2023-12-29T10:10:51;99311.78;;;15.51;51.27
9893;BME280;4985;49.092;8.542;2023-12-29T10:13:17;99299.34;;;15.52;50.79
9893;BME280;4985;49.092;8.542;2023-12-29T10:16:18;99297.53;;;15.52;50.63
9893;BME280;4985;49.092;8.542;2023-12-29T10:21:29;99288.91;;;15.50;51.19
9893;BME280;4985;49.092;8.542;2023-12-29T10:24:00;99282.78;;;15.50;50.66
9893;BME280;4985;49.092;8.542;2023-12-29T10:26:28;99279.94;;;15.51;50.98
9893;BME280;4985;49.092;8.542;2023-12-29T10:28:55;99277.13;;;15.53;50.80
9893;BME280;4985;49.092;8.542;2023-12-29T10:31:22;99281.59;;;15.52;50.67
9893;BME280;4985;49.092;8.542;2023-12-29T10:33:47;99271.81;;;15.53;50.78
9893;BME280;4985;49.092;8.542;2023-12-29T10:36:15;99270.59;;;15.55;50.66
9893;BME280;4985;49.092;8.542;2023-12-29T10:38:41;99270.59;;;15.55;50.86
9893;BME280;4985;49.092;8.542;2023-12-29T10:41:11;99257.94;;;15.57;50.73
9893;BME280;4985;49.092;8.542;2023-12-29T10:43:40;99261.63;;;15.56;50.38
9893;BME280;4985;49.092;8.542;2023-12-29T10:46:07;99262.63;;;15.55;50.74
9893;BME280;4985;49.092;8.542;2023-12-29T10:48:33;99244.06;;;15.55;50.39
9893;BME280;4985;49.092;8.542;2023-12-29T10:50:59;99246.72;;;15.55;50.57
9893;BME280;4985;49.092;8.542;2023-12-29T10:53:27;99239.78;;;15.54;50.40
9893;BME280;4985;49.092;8.542;2023-12-29T10:55:54;99247.72;;;15.54;49.96
9893;BME280;4985;49.092;8.542;2023-12-29T10:58:20;99240.59;;;15.55;49.81
9893;BME280;4985;49.092;8.542;2023-12-29T11:00:45;99235.28;;;15.55;50.21
9893;BME280;4985;49.092;8.542;2023-12-29T11:03:15;99228.13;;;15.55;50.06
9893;BME280;4985;49.092;8.542;2023-12-29T11:05:40;99225.50;;;15.55;49.72
9893;BME280;4985;49.092;8.542;2023-12-29T11:08:18;99223.66;;;15.56;49.49
9893;BME280;4985;49.092;8.542;2023-12-29T11:10:44;99222.84;;;15.55;49.54
9893;BME280;4985;49.092;8.542;2023-12-29T11:13:12;99220.19;;;15.55;49.79
9893;BME280;4985;49.092;8.542;2023-12-29T11:15:43;99224.47;;;15.56;49.81
9893;BME280;4985;49.092;8.542;2023-12-29T11:18:14;99227.94;;;15.57;49.78
9893;BME280;4985;49.092;8.542;2023-12-29T11:20:41;99226.91;;;15.58;49.20
9893;BME280;4985;49.092;8.542;2023-12-29T11:23:08;99226.09;;;15.57;49.17
9893;BME280;4985;49.092;8.542;2023-12-29T11:25:34;99225.09;;;15.58;48.95
9893;BME280;4985;49.092;8.542;2023-12-29T11:28:00;99224.06;;;15.59;49.13
9893;BME280;4985;49.092;8.542;2023-12-29T11:30:26;99202.84;;;15.59;49.20
9893;BME280;4985;49.092;8.542;2023-12-29T11:32:58;99209.81;;;15.60;48.91
9893;BME280;4985;49.092;8.542;2023-12-29T11:35:39;99215.13;;;15.60;48.73
9893;BME280;4985;49.092;8.542;2023-12-29T11:41:01;99216.09;;;15.59;48.69
9893;BME280;4985;49.092;8.542;2023-12-29T11:43:28;99204.50;;;15.60;48.75
9893;BME280;4985;49.092;8.542;2023-12-29T11:45:54;99205.50;;;15.59;48.82
9893;BME280;4985;49.092;8.542;2023-12-29T11:48:54;99194.72;;;15.61;48.81
9893;BME280;4985;49.092;8.542;2023-12-29T11:53:58;99199.19;;;15.60;48.34
9893;BME280;4985;49.092;8.542;2023-12-29T11:56:24;99198.38;;;15.60;48.32
9893;BME280;4985;49.092;8.542;2023-12-29T11:58:49;99187.78;;;15.60;48.57
9893;BME280;4985;49.092;8.542;2023-12-29T12:01:34;99195.53;;;15.61;48.09
9893;BME280;4985;49.092;8.542;2023-12-29T12:04:01;99189.41;;;15.61;48.05
9893;BME280;4985;49.092;8.542;2023-12-29T12:06:39;99185.94;;;15.60;47.93
9893;BME280;4985;49.092;8.542;2023-12-29T12:09:23;99189.41;;;15.61;48.34
9893;BME280;4985;49.092;8.542;2023-12-29T12:11:49;99189.41;;;15.61;48.46
9893;BME280;4985;49.092;8.542;2023-12-29T12:17:11;99192.88;;;15.61;48.58
9893;BME280;4985;49.092;8.542;2023-12-29T12:19:37;99195.53;;;15.61;48.14
9893;BME280;4985;49.092;8.542;2023-12-29T12:22:02;99193.69;;;15.62;48.47
9893;BME280;4985;49.092;8.542;2023-12-29T12:24:28;99195.53;;;15.61;48.58
9893;BME280;4985;49.092;8.542;2023-12-29T12:26:54;99190.22;;;15.61;48.69
9893;BME280;4985;49.092;8.542;2023-12-29T12:29:20;99184.91;;;15.61;48.61
9893;BME280;4985;49.092;8.542;2023-12-29T12:32:11;99188.22;;;15.63;48.77
9893;BME280;4985;49.092;8.542;2023-12-29T12:34:37;99181.25;;;15.62;49.00
9893;BME280;4985;49.092;8.542;2023-12-29T12:37:03;99181.25;;;15.62;48.83
9893;BME280;4985;49.092;8.542;2023-12-29T12:39:41;99193.53;;;15.63;49.13
9893;BME280;4985;49.092;8.542;2023-12-29T12:42:06;99186.53;;;15.62;48.95
9893;BME280;4985;49.092;8.542;2023-12-29T12:44:32;99175.75;;;15.64;49.17
9893;BME280;4985;49.092;8.542;2023-12-29T12:46:59;99187.19;;;15.64;49.08
9893;BME280;4985;49.092;8.542;2023-12-29T12:49:29;99181.69;;;15.66;48.94
9893;BME280;4985;49.092;8.542;2023-12-29T12:51:54;99184.13;;;15.67;49.21
9893;BME280;4985;49.092;8.542;2023-12-29T12:54:20;99181.47;;;15.67;49.35
9893;BME280;4985;49.092;8.542;2023-12-29T12:56:46;99186.59;;;15.69;49.29
9893;BME280;4985;49.092;8.542;2023-12-29T12:59:13;99184.13;;;15.67;49.22
9893;BME280;4985;49.092;8.542;2023-12-29T13:01:39;99184.75;;;15.69;49.27
9893;BME280;4985;49.092;8.542;2023-12-29T13:04:05;99191.91;;;15.69;49.30
9893;BME280;4985;49.092;8.542;2023-12-29T13:06:32;99187.41;;;15.69;48.96
9893;BME280;4985;49.092;8.542;2023-12-29T13:08:58;99192.72;;;15.69;49.22
9893;BME280;4985;49.092;8.542;2023-12-29T13:11:24;99189.84;;;15.71;49.47
9893;BME280;4985;49.092;8.542;2023-12-29T13:13:53;99193.53;;;15.70;49.15
9893;BME280;4985;49.092;8.542;2023-12-29T13:16:32;99195.97;;;15.71;49.13
9893;BME280;4985;49.092;8.542;2023-12-29T13:19:15;99195.97;;;15.71;49.18
9893;BME280;4985;49.092;8.542;2023-12-29T13:21:41;99191.69;;;15.70;48.99
9893;BME280;4985;49.092;8.542;2023-12-29T13:24:07;99197.00;;;15.70;49.11
9893;BME280;4985;49.092;8.542;2023-12-29T13:26:32;99198.03;;;15.69;49.46
9893;BME280;4985;49.092;8.542;2023-12-29T13:28:58;99200.69;;;15.69;49.31
9893;BME280;4985;49.092;8.542;2023-12-29T13:31:24;99193.53;;;15.70;49.58